Airfield :
LOGIN :

Register | Disclaimer

   EN    FR    IT 

 










Legend :    VFR   Marginal VFR   IFR   Intensive IFR   Very Intensive IFR
Visi :
Ceiling :
>= 8 km
>= 3000ft
5 to 8 km
1000 to 3000 ft
1500m to 5 km
500 to 1000 ft
800 to 1500m
200 to 500 ft
< 800m
< 200 ft
Symbols :   Thunderstorms  Fog  Heavy snow  Heavy precipitations  Wind > 20 kt
SIGMETs :     Misc.  Thunderstorms  Icing  Turbulence  Mountain Waves  Volcanic Ashes






- Airport Elevation : 37 ft


EGOW - Woodvale

CURRENT METAR :
  • 280850Z 13014KT 7000 -RA SCT006 BKN013 03/01 Q1004 RMK YLO1

EXPIRED METARs :
  • 280820Z 14013KT 9000 RA SCT009 BKN013 03/01 Q1004 RMK GRN
  • 280750Z 16017KT 7000 RA FEW008 BKN013 03/01 Q1005 RMK GRN

TAF TAF EGOW
Valid from the 28 at 09:00 until the 28 at 18:00 UTC


280901Z 2809/2818 16017G27KT 9999 BKN010
TEMPO 2809/2814 5000 RA
PROB40
TEMPO 2809/2814 4000 RADZ BKN006
BECMG 2813/2815 19012KT SCT018
TEMPO 2815/2818 BKN010



MET'MAP, your aeronautical weather chart ! - Copyright ORBIFLY December 2007 - Disclaimer

ORBIFLY MET'MAP TEAM :

Programming & Development : Alexandra Zaïnal
Concept & original design : Baudouin d'Aumeries
Assistance for programming : Marc-Olivier Méhu
Technical & hardware support : Manuel Goepfert

Contact : metmap@orbifly.com




SOURCES & CREDITS :

   NOAA